South Kingstown, Rhode Island
Current Conditions -  °F | °C
As of 8:53 PM on Friday 24 Oct 2014 (Local Time) from KWST Reporting Station
Overcast Overcast  
Wind Chill: 52°   Ceiling: 3000
Heat Index: 52°   Visibility: 10mi
Dew Point: 42°   Wind: 6mph
Humidity: 69%   Direction: NA
Pressure: 29.76"   Gusts: NA
Location:  41.497°N, 71.599°W
Report Text: KWST 250053Z AUTO VRB05KT 10SM OVC030 11/06 A2976 RMK AO2 SLP079 T01110056
Loading
Personal Weather Stations






























Interactive Weather Map
Tropical Storm Tracking
New forecast layout! Learn more

10-Day Weather Forecast

Advertisements
Track Severe Weather on mobile